sensor_id;sensor_type;location;lat;lon;timestamp;pressure;altitude;pressure_sealevel;temperature;humidity
43553;BME280;29153;42.696;23.218;2023-03-25T00:01:33;94204.66;;;4.62;100.00
43553;BME280;29153;42.696;23.218;2023-03-25T00:04:03;94203.34;;;4.62;100.00
43553;BME280;29153;42.696;23.218;2023-03-25T00:06:31;94200.17;;;4.62;100.00
43553;BME280;29153;42.696;23.218;2023-03-25T00:09:02;94203.30;;;4.59;100.00
43553;BME280;29153;42.696;23.218;2023-03-25T00:11:30;94206.22;;;4.63;100.00
43553;BME280;29153;42.696;23.218;2023-03-25T00:13:58;94125.60;;;4.09;100.00
43553;BME280;29153;42.696;23.218;2023-03-25T00:16:25;94202.45;;;4.53;100.00
43553;BME280;29153;42.696;23.218;2023-03-25T00:18:53;94192.22;;;4.54;100.00
43553;BME280;29153;42.696;23.218;2023-03-25T00:21:20;94191.17;;;4.53;100.00
43553;BME280;29153;42.696;23.218;2023-03-25T00:23:48;94186.17;;;4.54;100.00
43553;BME280;29153;42.696;23.218;2023-03-25T00:26:16;94180.09;;;4.48;100.00
43553;BME280;29153;42.696;23.218;2023-03-25T00:28:44;94178.78;;;4.48;100.00
43553;BME280;29153;42.696;23.218;2023-03-25T00:31:13;94175.86;;;4.45;100.00
43553;BME280;29153;42.696;23.218;2023-03-25T00:33:41;94181.20;;;4.52;100.00
43553;BME280;29153;42.696;23.218;2023-03-25T00:36:09;94185.06;;;4.47;100.00
43553;BME280;29153;42.696;23.218;2023-03-25T00:38:38;94184.20;;;4.42;100.00
43553;BME280;29153;42.696;23.218;2023-03-25T00:43:44;94179.73;;;4.40;100.00
43553;BME280;29153;42.696;23.218;2023-03-25T00:46:12;94182.05;;;4.36;100.00
43553;BME280;29153;42.696;23.218;2023-03-25T00:48:39;94182.14;;;4.44;100.00
43553;BME280;29153;42.696;23.218;2023-03-25T00:51:07;94175.73;;;4.35;100.00
43553;BME280;29153;42.696;23.218;2023-03-25T00:53:36;94175.14;;;4.30;100.00
43553;BME280;29153;42.696;23.218;2023-03-25T00:56:04;94171.81;;;4.37;100.00
43553;BME280;29153;42.696;23.218;2023-03-25T00:58:32;94161.80;;;4.32;100.00
43553;BME280;29153;42.696;23.218;2023-03-25T01:01:06;94170.18;;;4.31;100.00
43553;BME280;29153;42.696;23.218;2023-03-25T01:03:30;94165.03;;;4.20;100.00
43553;BME280;29153;42.696;23.218;2023-03-25T01:06:00;94160.12;;;4.23;100.00
43553;BME280;29153;42.696;23.218;2023-03-25T01:08:28;94158.38;;;4.12;100.00
43553;BME280;29153;42.696;23.218;2023-03-25T01:10:57;94156.55;;;4.12;100.00
43553;BME280;29153;42.696;23.218;2023-03-25T01:13:24;94159.59;;;4.04;100.00
43553;BME280;29153;42.696;23.218;2023-03-25T01:15:52;94156.77;;;4.08;100.00
43553;BME280;29153;42.696;23.218;2023-03-25T01:18:19;94153.56;;;4.04;100.00
43553;BME280;29153;42.696;23.218;2023-03-25T01:20:46;94145.16;;;4.02;100.00
43553;BME280;29153;42.696;23.218;2023-03-25T01:23:14;94141.63;;;4.13;100.00
43553;BME280;29153;42.696;23.218;2023-03-25T01:25:42;94136.67;;;4.14;100.00
43553;BME280;29153;42.696;23.218;2023-03-25T01:28:09;94135.19;;;4.01;100.00
43553;BME280;29153;42.696;23.218;2023-03-25T01:30:37;94134.72;;;4.07;100.00
43553;BME280;29153;42.696;23.218;2023-03-25T01:33:05;94130.47;;;4.01;100.00
43553;BME280;29153;42.696;23.218;2023-03-25T01:35:32;94129.25;;;4.08;100.00
43553;BME280;29153;42.696;23.218;2023-03-25T01:38:00;94119.56;;;4.09;100.00
43553;BME280;29153;42.696;23.218;2023-03-25T01:40:28;94112.78;;;4.10;100.00
43553;BME280;29153;42.696;23.218;2023-03-25T01:42:56;94111.48;;;3.94;100.00
43553;BME280;29153;42.696;23.218;2023-03-25T01:45:29;94121.02;;;4.00;100.00
43553;BME280;29153;42.696;23.218;2023-03-25T01:48:07;94115.42;;;3.94;100.00
43553;BME280;29153;42.696;23.218;2023-03-25T01:50:37;94117.71;;;3.88;100.00
43553;BME280;29153;42.696;23.218;2023-03-25T01:53:06;94114.86;;;3.89;100.00
43553;BME280;29153;42.696;23.218;2023-03-25T01:55:36;94120.12;;;3.92;100.00
43553;BME280;29153;42.696;23.218;2023-03-25T01:58:10;94116.12;;;3.87;100.00
43553;BME280;29153;42.696;23.218;2023-03-25T02:00:40;94116.19;;;3.92;100.00
43553;BME280;29153;42.696;23.218;2023-03-25T02:03:09;94114.22;;;3.82;100.00
43553;BME280;29153;42.696;23.218;2023-03-25T02:06:06;94114.81;;;3.87;100.00
43553;BME280;29153;42.696;23.218;2023-03-25T02:08:37;94108.75;;;3.84;100.00
43553;BME280;29153;42.696;23.218;2023-03-25T02:11:06;94106.41;;;3.85;100.00
43553;BME280;29153;42.696;23.218;2023-03-25T02:13:35;94105.83;;;3.80;100.00
43553;BME280;29153;42.696;23.218;2023-03-25T02:18:54;94104.94;;;3.72;100.00
43553;BME280;29153;42.696;23.218;2023-03-25T02:21:34;94097.59;;;3.72;100.00
43553;BME280;29153;42.696;23.218;2023-03-25T02:24:08;94098.05;;;3.68;100.00
43553;BME280;29153;42.696;23.218;2023-03-25T02:33:05;94093.53;;;3.64;100.00
43553;BME280;29153;42.696;23.218;2023-03-25T02:43:52;94088.27;;;3.61;100.00
43553;BME280;29153;42.696;23.218;2023-03-25T02:46:20;94081.52;;;3.65;100.00
43553;BME280;29153;42.696;23.218;2023-03-25T02:49:01;94083.45;;;3.53;100.00
43553;BME280;29153;42.696;23.218;2023-03-25T02:51:31;94080.27;;;3.51;100.00
43553;BME280;29153;42.696;23.218;2023-03-25T02:54:08;94085.04;;;3.54;100.00
43553;BME280;29153;42.696;23.218;2023-03-25T02:56:37;94089.70;;;3.52;100.00
43553;BME280;29153;42.696;23.218;2023-03-25T02:59:07;94089.42;;;3.51;100.00
43553;BME280;29153;42.696;23.218;2023-03-25T03:01:37;94079.36;;;3.43;100.00
43553;BME280;29153;42.696;23.218;2023-03-25T03:04:05;94079.47;;;3.51;100.00
43553;BME280;29153;42.696;23.218;2023-03-25T03:06:38;94075.23;;;3.47;100.00
43553;BME280;29153;42.696;23.218;2023-03-25T03:09:12;94067.64;;;3.46;100.00
43553;BME280;29153;42.696;23.218;2023-03-25T03:17:06;94073.00;;;3.37;100.00
43553;BME280;29153;42.696;23.218;2023-03-25T03:19:39;94072.63;;;3.31;100.00
43553;BME280;29153;42.696;23.218;2023-03-25T03:22:22;94088.39;;;3.33;100.00
43553;BME280;29153;42.696;23.218;2023-03-25T03:24:54;94088.23;;;3.23;100.00
43553;BME280;29153;42.696;23.218;2023-03-25T03:32:51;94082.25;;;3.25;100.00
43553;BME280;29153;42.696;23.218;2023-03-25T03:35:41;94085.61;;;3.23;100.00
43553;BME280;29153;42.696;23.218;2023-03-25T03:38:11;94082.17;;;3.20;100.00
43553;BME280;29153;42.696;23.218;2023-03-25T03:40:42;94097.67;;;3.24;100.00
43553;BME280;29153;42.696;23.218;2023-03-25T03:43:34;94092.72;;;3.25;100.00
43553;BME280;29153;42.696;23.218;2023-03-25T03:46:07;94093.86;;;3.32;100.00
43553;BME280;29153;42.696;23.218;2023-03-25T03:48:46;94092.34;;;3.36;100.00
43553;BME280;29153;42.696;23.218;2023-03-25T03:51:16;94086.35;;;3.21;100.00
43553;BME280;29153;42.696;23.218;2023-03-25T03:53:50;94045.77;;;2.85;100.00
43553;BME280;29153;42.696;23.218;2023-03-25T03:56:23;94088.12;;;3.15;100.00
43553;BME280;29153;42.696;23.218;2023-03-25T03:58:53;94089.94;;;3.15;100.00
43553;BME280;29153;42.696;23.218;2023-03-25T04:01:29;94088.12;;;3.15;100.00
43553;BME280;29153;42.696;23.218;2023-03-25T04:04:03;94088.43;;;3.19;100.00
43553;BME280;29153;42.696;23.218;2023-03-25T04:06:37;94090.56;;;3.22;100.00
43553;BME280;29153;42.696;23.218;2023-03-25T04:09:08;94088.06;;;3.13;100.00
43553;BME280;29153;42.696;23.218;2023-03-25T04:11:42;94087.80;;;3.12;100.00
43553;BME280;29153;42.696;23.218;2023-03-25T04:14:12;94084.91;;;3.11;100.00
43553;BME280;29153;42.696;23.218;2023-03-25T04:16:41;94080.41;;;3.09;100.00
43553;BME280;29153;42.696;23.218;2023-03-25T04:19:10;94077.39;;;3.17;100.00
43553;BME280;29153;42.696;23.218;2023-03-25T04:21:43;94075.83;;;3.16;100.00
43553;BME280;29153;42.696;23.218;2023-03-25T04:24:13;94082.09;;;3.15;100.00
43553;BME280;29153;42.696;23.218;2023-03-25T04:26:43;94082.89;;;3.15;100.00
43553;BME280;29153;42.696;23.218;2023-03-25T04:29:11;94085.05;;;3.04;100.00
43553;BME280;29153;42.696;23.218;2023-03-25T04:31:39;94083.82;;;3.09;100.00
43553;BME280;29153;42.696;23.218;2023-03-25T04:34:09;94082.83;;;3.13;100.00
43553;BME280;29153;42.696;23.218;2023-03-25T04:36:36;94090.22;;;3.16;100.00
43553;BME280;29153;42.696;23.218;2023-03-25T04:39:04;94093.18;;;3.22;100.00
43553;BME280;29153;42.696;23.218;2023-03-25T04:41:33;94089.31;;;3.25;100.00
43553;BME280;29153;42.696;23.218;2023-03-25T04:44:00;94094.77;;;3.23;100.00
43553;BME280;29153;42.696;23.218;2023-03-25T04:46:27;94089.31;;;3.25;100.00
43553;BME280;29153;42.696;23.218;2023-03-25T04:48:56;94093.88;;;3.34;100.00
43553;BME280;29153;42.696;23.218;2023-03-25T04:51:25;94097.44;;;3.42;100.00
43553;BME280;29153;42.696;23.218;2023-03-25T04:53:53;94094.33;;;3.45;100.00
43553;BME280;29153;42.696;23.218;2023-03-25T04:56:20;94087.58;;;3.49;100.00
43553;BME280;29153;42.696;23.218;2023-03-25T04:58:48;94082.42;;;3.54;100.00
43553;BME280;29153;42.696;23.218;2023-03-25T05:01:19;94089.60;;;3.64;100.00
43553;BME280;29153;42.696;23.218;2023-03-25T05:03:44;94093.09;;;3.70;100.00
43553;BME280;29153;42.696;23.218;2023-03-25T05:06:13;94093.45;;;3.76;100.00
43553;BME280;29153;42.696;23.218;2023-03-25T05:08:41;94094.58;;;3.82;100.00
43553;BME280;29153;42.696;23.218;2023-03-25T05:11:08;94089.69;;;3.88;100.00
43553;BME280;29153;42.696;23.218;2023-03-25T05:13:36;94096.40;;;4.01;100.00
43553;BME280;29153;42.696;23.218;2023-03-25T05:16:03;94090.80;;;4.14;100.00
43553;BME280;29153;42.696;23.218;2023-03-25T05:18:31;94091.68;;;4.22;100.00
43553;BME280;29153;42.696;23.218;2023-03-25T05:20:58;94096.62;;;4.40;100.00
43553;BME280;29153;42.696;23.218;2023-03-25T05:23:27;94082.98;;;4.68;100.00
43553;BME280;29153;42.696;23.218;2023-03-25T05:25:56;94089.61;;;5.02;100.00
43553;BME280;29153;42.696;23.218;2023-03-25T05:28:24;94088.84;;;5.73;100.00
43553;BME280;29153;42.696;23.218;2023-03-25T05:30:51;94082.45;;;6.78;100.00
43553;BME280;29153;42.696;23.218;2023-03-25T05:33:19;94088.06;;;7.40;100.00
43553;BME280;29153;42.696;23.218;2023-03-25T05:35:47;94089.05;;;7.89;99.29
43553;BME280;29153;42.696;23.218;2023-03-25T05:38:16;94088.68;;;8.36;95.18
43553;BME280;29153;42.696;23.218;2023-03-25T05:40:46;94094.34;;;8.71;90.75
43553;BME280;29153;42.696;23.218;2023-03-25T05:43:15;94098.27;;;9.20;87.58
43553;BME280;29153;42.696;23.218;2023-03-25T05:45:42;94099.33;;;9.58;86.13
43553;BME280;29153;42.696;23.218;2023-03-25T05:48:10;94102.69;;;9.95;84.01
43553;BME280;29153;42.696;23.218;2023-03-25T05:50:38;94102.37;;;10.28;82.77
43553;BME280;29153;42.696;23.218;2023-03-25T05:53:11;94099.55;;;10.22;81.53
43553;BME280;29153;42.696;23.218;2023-03-25T05:55:40;94100.39;;;10.17;82.13
43553;BME280;29153;42.696;23.218;2023-03-25T05:58:08;94096.70;;;10.11;82.87
43553;BME280;29153;42.696;23.218;2023-03-25T06:00:35;94105.86;;;10.26;82.57
43553;BME280;29153;42.696;23.218;2023-03-25T06:03:06;94105.11;;;10.44;82.25
43553;BME280;29153;42.696;23.218;2023-03-25T06:05:34;94101.09;;;10.70;80.82
43553;BME280;29153;42.696;23.218;2023-03-25T06:08:01;94092.81;;;10.95;80.25
43553;BME280;29153;42.696;23.218;2023-03-25T06:10:29;94095.52;;;11.12;78.30
43553;BME280;29153;42.696;23.218;2023-03-25T06:12:58;94095.28;;;11.46;77.48
43553;BME280;29153;42.696;23.218;2023-03-25T06:15:26;94094.70;;;11.65;75.66
43553;BME280;29153;42.696;23.218;2023-03-25T06:17:58;94094.52;;;11.77;75.49
43553;BME280;29153;42.696;23.218;2023-03-25T06:20:26;94093.30;;;11.89;74.72
43553;BME280;29153;42.696;23.218;2023-03-25T06:22:54;94095.45;;;12.16;73.15
43553;BME280;29153;42.696;23.218;2023-03-25T06:25:21;94101.07;;;12.42;72.24
43553;BME280;29153;42.696;23.218;2023-03-25T06:27:51;94103.84;;;12.64;70.48
43553;BME280;29153;42.696;23.218;2023-03-25T06:30:20;94103.84;;;12.64;70.48
43553;BME280;29153;42.696;23.218;2023-03-25T06:32:48;94098.96;;;12.83;68.90
43553;BME280;29153;42.696;23.218;2023-03-25T06:35:16;94098.96;;;12.83;68.90
43553;BME280;29153;42.696;23.218;2023-03-25T06:37:46;94104.80;;;12.96;68.15
43553;BME280;29153;42.696;23.218;2023-03-25T06:40:14;94102.45;;;13.19;68.30
43553;BME280;29153;42.696;23.218;2023-03-25T06:42:42;94103.78;;;13.19;69.80
43553;BME280;29153;42.696;23.218;2023-03-25T06:45:10;94111.14;;;13.11;69.29
43553;BME280;29153;42.696;23.218;2023-03-25T06:47:39;94110.41;;;13.44;69.37
43553;BME280;29153;42.696;23.218;2023-03-25T06:50:06;94109.65;;;13.54;68.01
43553;BME280;29153;42.696;23.218;2023-03-25T06:52:35;94115.11;;;13.60;66.66
43553;BME280;29153;42.696;23.218;2023-03-25T06:55:03;94119.43;;;13.45;66.43
43553;BME280;29153;42.696;23.218;2023-03-25T06:57:31;94112.30;;;13.65;67.11
43553;BME280;29153;42.696;23.218;2023-03-25T06:59:58;94105.86;;;13.69;68.51
43553;BME280;29153;42.696;23.218;2023-03-25T07:02:26;94114.97;;;13.65;69.15
43553;BME280;29153;42.696;23.218;2023-03-25T07:04:53;94116.13;;;13.84;70.10
43553;BME280;29153;42.696;23.218;2023-03-25T07:07:21;94121.58;;;13.90;66.73
43553;BME280;29153;42.696;23.218;2023-03-25T07:09:52;94114.98;;;13.99;67.66
43553;BME280;29153;42.696;23.218;2023-03-25T07:12:21;94106.92;;;14.01;69.22
43553;BME280;29153;42.696;23.218;2023-03-25T07:14:53;94112.96;;;14.16;66.99
43553;BME280;29153;42.696;23.218;2023-03-25T07:17:23;94113.95;;;14.59;65.29
43553;BME280;29153;42.696;23.218;2023-03-25T07:19:50;94118.89;;;14.74;63.95
43553;BME280;29153;42.696;23.218;2023-03-25T07:22:18;94119.24;;;15.18;64.05
43553;BME280;29153;42.696;23.218;2023-03-25T07:24:45;94120.91;;;15.42;60.89
43553;BME280;29153;42.696;23.218;2023-03-25T07:27:14;94120.91;;;15.42;60.89
43553;BME280;29153;42.696;23.218;2023-03-25T07:29:42;94115.31;;;15.53;64.39
43553;BME280;29153;42.696;23.218;2023-03-25T07:32:10;94100.47;;;16.15;62.74
43553;BME280;29153;42.696;23.218;2023-03-25T07:34:37;94102.93;;;16.37;61.65
43553;BME280;29153;42.696;23.218;2023-03-25T07:37:05;94102.93;;;16.37;61.65
43553;BME280;29153;42.696;23.218;2023-03-25T07:39:33;94111.88;;;16.88;57.43
43553;BME280;29153;42.696;23.218;2023-03-25T07:42:01;94108.70;;;17.24;56.37
43553;BME280;29153;42.696;23.218;2023-03-25T07:44:28;94098.98;;;17.25;56.32
43553;BME280;29153;42.696;23.218;2023-03-25T07:47:09;94090.20;;;17.87;56.54
43553;BME280;29153;42.696;23.218;2023-03-25T07:49:36;94087.53;;;18.26;55.98
43553;BME280;29153;42.696;23.218;2023-03-25T07:52:06;94082.19;;;18.38;58.97
43553;BME280;29153;42.696;23.218;2023-03-25T07:54:33;94074.75;;;18.74;55.29
43553;BME280;29153;42.696;23.218;2023-03-25T07:57:12;94077.56;;;18.90;54.47
43553;BME280;29153;42.696;23.218;2023-03-25T07:59:41;94080.31;;;19.30;51.63
43553;BME280;29153;42.696;23.218;2023-03-25T08:02:13;94072.48;;;19.31;50.59
43553;BME280;29153;42.696;23.218;2023-03-25T08:04:41;94061.73;;;19.43;54.49
43553;BME280;29153;42.696;23.218;2023-03-25T08:07:08;94050.11;;;19.33;56.51
43553;BME280;29153;42.696;23.218;2023-03-25T08:09:36;94050.89;;;19.79;53.34
43553;BME280;29153;42.696;23.218;2023-03-25T08:12:03;94045.61;;;20.05;51.35
43553;BME280;29153;42.696;23.218;2023-03-25T08:14:31;94052.40;;;19.92;52.42
43553;BME280;29153;42.696;23.218;2023-03-25T08:16:58;94048.63;;;20.25;52.62
43553;BME280;29153;42.696;23.218;2023-03-25T08:19:26;94043.96;;;20.43;49.97
43553;BME280;29153;42.696;23.218;2023-03-25T08:21:53;94044.75;;;20.44;47.73
43553;BME280;29153;42.696;23.218;2023-03-25T08:24:21;94040.20;;;20.32;46.45
43553;BME280;29153;42.696;23.218;2023-03-25T08:26:50;94041.28;;;20.16;49.30
43553;BME280;29153;42.696;23.218;2023-03-25T08:29:19;94042.14;;;20.04;50.30
43553;BME280;29153;42.696;23.218;2023-03-25T08:31:47;94036.92;;;19.95;49.68
43553;BME280;29153;42.696;23.218;2023-03-25T08:34:16;94036.76;;;20.48;48.10
43553;BME280;29153;42.696;23.218;2023-03-25T08:36:43;94022.36;;;20.40;49.92
43553;BME280;29153;42.696;23.218;2023-03-25T08:39:12;94032.69;;;20.54;47.18
43553;BME280;29153;42.696;23.218;2023-03-25T08:41:41;94032.33;;;20.55;48.49
43553;BME280;29153;42.696;23.218;2023-03-25T08:44:09;94030.19;;;20.55;47.50
43553;BME280;29153;42.696;23.218;2023-03-25T08:46:37;94027.91;;;20.31;45.77
43553;BME280;29153;42.696;23.218;2023-03-25T08:49:05;94026.81;;;19.98;47.16
43553;BME280;29153;42.696;23.218;2023-03-25T08:51:33;94022.28;;;20.09;47.21
43553;BME280;29153;42.696;23.218;2023-03-25T08:54:00;94019.31;;;19.36;46.97
43553;BME280;29153;42.696;23.218;2023-03-25T08:56:28;94016.25;;;19.56;48.51
43553;BME280;29153;42.696;23.218;2023-03-25T08:58:56;94018.79;;;19.65;47.98
43553;BME280;29153;42.696;23.218;2023-03-25T09:01:23;94015.83;;;19.54;49.76
43553;BME280;29153;42.696;23.218;2023-03-25T09:03:50;94020.23;;;19.46;48.85
43553;BME280;29153;42.696;23.218;2023-03-25T09:06:19;94019.79;;;19.72;48.86
43553;BME280;29153;42.696;23.218;2023-03-25T09:08:46;94015.66;;;19.90;48.49
43553;BME280;29153;42.696;23.218;2023-03-25T09:11:14;93997.94;;;20.11;51.16
43553;BME280;29153;42.696;23.218;2023-03-25T09:13:42;93999.99;;;20.30;48.84
43553;BME280;29153;42.696;23.218;2023-03-25T09:16:10;94002.09;;;20.15;46.69
43553;BME280;29153;42.696;23.218;2023-03-25T09:18:37;94001.06;;;19.48;45.99
43553;BME280;29153;42.696;23.218;2023-03-25T09:21:05;94008.13;;;19.46;47.54
43553;BME280;29153;42.696;23.218;2023-03-25T09:23:33;94005.78;;;19.45;47.95
43553;BME280;29153;42.696;23.218;2023-03-25T09:26:01;94000.69;;;19.09;47.90
43553;BME280;29153;42.696;23.218;2023-03-25T09:28:30;93997.41;;;18.82;48.98
43553;BME280;29153;42.696;23.218;2023-03-25T09:30:58;93999.39;;;18.79;48.30
43553;BME280;29153;42.696;23.218;2023-03-25T09:33:25;94004.98;;;18.98;48.76
43553;BME280;29153;42.696;23.218;2023-03-25T09:35:53;94000.42;;;19.33;50.56
43553;BME280;29153;42.696;23.218;2023-03-25T09:38:20;93996.14;;;19.50;47.55
43553;BME280;29153;42.696;23.218;2023-03-25T09:40:48;93995.56;;;19.38;48.23
43553;BME280;29153;42.696;23.218;2023-03-25T09:46:17;93991.12;;;19.92;47.67
43553;BME280;29153;42.696;23.218;2023-03-25T09:48:46;93984.72;;;19.96;45.47
43553;BME280;29153;42.696;23.218;2023-03-25T09:56:33;93982.44;;;20.67;45.79
43553;BME280;29153;42.696;23.218;2023-03-25T09:59:16;93974.42;;;20.86;43.84
43553;BME280;29153;42.696;23.218;2023-03-25T10:04:53;93962.53;;;21.13;41.49
43553;BME280;29153;42.696;23.218;2023-03-25T10:21:02;93936.73;;;20.86;41.09
43553;BME280;29153;42.696;23.218;2023-03-25T10:26:07;93923.42;;;21.03;40.62
43553;BME280;29153;42.696;23.218;2023-03-25T10:28:41;93917.28;;;21.31;42.38
43553;BME280;29153;42.696;23.218;2023-03-25T10:48:45;93904.16;;;21.40;43.46
43553;BME280;29153;42.696;23.218;2023-03-25T10:51:15;93894.75;;;21.30;40.81
43553;BME280;29153;42.696;23.218;2023-03-25T10:53:46;93884.04;;;21.14;39.91
43553;BME280;29153;42.696;23.218;2023-03-25T10:56:23;93878.75;;;21.18;41.74
43553;BME280;29153;42.696;23.218;2023-03-25T10:58:49;93875.51;;;21.51;40.81
43553;BME280;29153;42.696;23.218;2023-03-25T11:01:19;93867.69;;;21.65;39.99
43553;BME280;29153;42.696;23.218;2023-03-25T11:03:49;93869.45;;;21.57;38.26
43553;BME280;29153;42.696;23.218;2023-03-25T11:06:31;93868.88;;;21.67;38.10
43553;BME280;29153;42.696;23.218;2023-03-25T11:09:26;93859.88;;;21.83;38.88
43553;BME280;29153;42.696;23.218;2023-03-25T11:12:01;93865.05;;;21.68;37.20
43553;BME280;29153;42.696;23.218;2023-03-25T11:14:27;93856.75;;;21.67;37.20
43553;BME280;29153;42.696;23.218;2023-03-25T11:16:59;93857.44;;;21.42;37.33
43553;BME280;29153;42.696;23.218;2023-03-25T11:19:39;93855.81;;;21.08;37.02
43553;BME280;29153;42.696;23.218;2023-03-25T11:22:25;93855.54;;;21.23;39.41
43553;BME280;29153;42.696;23.218;2023-03-25T11:24:51;93846.03;;;21.39;38.44
43553;BME280;29153;42.696;23.218;2023-03-25T11:27:24;93847.98;;;21.74;37.60
43553;BME280;29153;42.696;23.218;2023-03-25T11:30:02;93848.82;;;21.78;38.73
43553;BME280;29153;42.696;23.218;2023-03-25T11:32:38;93845.85;;;22.06;39.44
43553;BME280;29153;42.696;23.218;2023-03-25T11:37:46;93833.86;;;22.16;37.08
43553;BME280;29153;42.696;23.218;2023-03-25T11:40:16;93836.06;;;22.07;37.41
43553;BME280;29153;42.696;23.218;2023-03-25T11:42:45;93833.75;;;21.96;36.77
43553;BME280;29153;42.696;23.218;2023-03-25T11:45:31;93842.08;;;21.78;35.64
43553;BME280;29153;42.696;23.218;2023-03-25T11:47:59;93826.44;;;21.51;35.66
43553;BME280;29153;42.696;23.218;2023-03-25T11:50:29;93823.52;;;21.50;36.34
43553;BME280;29153;42.696;23.218;2023-03-25T11:52:59;93825.78;;;21.48;38.05
43553;BME280;29153;42.696;23.218;2023-03-25T11:55:35;93827.58;;;21.41;37.17
43553;BME280;29153;42.696;23.218;2023-03-25T11:57:59;93820.31;;;21.54;38.48
43553;BME280;29153;42.696;23.218;2023-03-25T12:00:38;93811.80;;;21.52;36.21
43553;BME280;29153;42.696;23.218;2023-03-25T12:03:18;93821.12;;;21.45;36.34
43553;BME280;29153;42.696;23.218;2023-03-25T12:05:58;93811.02;;;21.29;36.47
43553;BME280;29153;42.696;23.218;2023-03-25T12:08:55;93811.87;;;21.14;36.60
43553;BME280;29153;42.696;23.218;2023-03-25T12:11:13;93813.23;;;20.66;36.41
43553;BME280;29153;42.696;23.218;2023-03-25T12:19:15;93810.73;;;20.22;37.95
43553;BME280;29153;42.696;23.218;2023-03-25T12:46:49;93795.22;;;19.90;37.69
43553;BME280;29153;42.696;23.218;2023-03-25T12:49:27;93800.09;;;19.85;38.21
43553;BME280;29153;42.696;23.218;2023-03-25T12:52:10;93789.66;;;19.99;37.67
43553;BME280;29153;42.696;23.218;2023-03-25T12:57:27;93796.52;;;19.96;37.87
43553;BME280;29153;42.696;23.218;2023-03-25T13:00:07;93796.41;;;19.83;38.35
43553;BME280;29153;42.696;23.218;2023-03-25T13:08:29;93790.31;;;19.39;41.04
43553;BME280;29153;42.696;23.218;2023-03-25T13:11:13;93792.69;;;19.35;40.51
43553;BME280;29153;42.696;23.218;2023-03-25T13:13:37;93788.52;;;19.22;41.36
43553;BME280;29153;42.696;23.218;2023-03-25T13:16:15;93788.48;;;19.12;41.64
43553;BME280;29153;42.696;23.218;2023-03-25T13:18:46;93793.94;;;19.16;42.39
43553;BME280;29153;42.696;23.218;2023-03-25T13:24:20;93791.42;;;19.07;43.66
43553;BME280;29153;42.696;23.218;2023-03-25T13:26:28;93794.26;;;18.98;42.05
43553;BME280;29153;42.696;23.218;2023-03-25T13:31:35;93802.52;;;18.78;42.38
43553;BME280;29153;42.696;23.218;2023-03-25T13:34:26;93807.58;;;18.67;43.55
43553;BME280;29153;42.696;23.218;2023-03-25T13:45:21;93830.92;;;17.09;53.94
43553;BME280;29153;42.696;23.218;2023-03-25T13:48:34;93841.91;;;16.95;57.25
43553;BME280;29153;42.696;23.218;2023-03-25T13:50:27;93854.44;;;16.56;58.31
43553;BME280;29153;42.696;23.218;2023-03-25T13:53:04;93854.80;;;16.10;60.94
43553;BME280;29153;42.696;23.218;2023-03-25T13:55:41;93847.39;;;16.01;64.74
43553;BME280;29153;42.696;23.218;2023-03-25T14:06:40;93839.86;;;15.27;71.54
43553;BME280;29153;42.696;23.218;2023-03-25T14:14:50;93830.23;;;15.12;73.75
43553;BME280;29153;42.696;23.218;2023-03-25T14:17:18;93828.85;;;15.06;76.00
43553;BME280;29153;42.696;23.218;2023-03-25T14:19:50;93834.20;;;14.97;77.52
43553;BME280;29153;42.696;23.218;2023-03-25T14:22:25;93818.85;;;14.77;83.06
43553;BME280;29153;42.696;23.218;2023-03-25T14:24:53;93818.85;;;14.77;83.06
43553;BME280;29153;42.696;23.218;2023-03-25T14:27:32;93796.55;;;14.49;83.84
43553;BME280;29153;42.696;23.218;2023-03-25T14:30:03;93796.55;;;14.49;83.84
43553;BME280;29153;42.696;23.218;2023-03-25T14:32:38;93773.56;;;14.17;85.09
43553;BME280;29153;42.696;23.218;2023-03-25T14:43:44;93763.78;;;14.32;87.60
43553;BME280;29153;42.696;23.218;2023-03-25T14:46:15;93757.98;;;14.38;87.71
43553;BME280;29153;42.696;23.218;2023-03-25T14:49:17;93748.27;;;14.42;88.01
43553;BME280;29153;42.696;23.218;2023-03-25T14:54:33;93746.23;;;14.48;86.87
43553;BME280;29153;42.696;23.218;2023-03-25T14:57:16;93728.45;;;14.46;85.54
43553;BME280;29153;42.696;23.218;2023-03-25T14:59:59;93736.63;;;14.64;86.52
43553;BME280;29153;42.696;23.218;2023-03-25T15:02:30;93736.63;;;14.64;86.52
43553;BME280;29153;42.696;23.218;2023-03-25T15:05:12;93725.25;;;14.70;88.63
43553;BME280;29153;42.696;23.218;2023-03-25T15:10:23;93737.16;;;14.72;85.80
43553;BME280;29153;42.696;23.218;2023-03-25T15:13:14;93733.61;;;14.83;85.94
43553;BME280;29153;42.696;23.218;2023-03-25T15:17:54;93718.63;;;14.84;86.62
43553;BME280;29153;42.696;23.218;2023-03-25T15:25:47;93710.49;;;14.72;86.30
43553;BME280;29153;42.696;23.218;2023-03-25T15:34:23;93710.30;;;14.63;83.61
43553;BME280;29153;42.696;23.218;2023-03-25T15:39:37;93706.09;;;14.53;84.13
43553;BME280;29153;42.696;23.218;2023-03-25T15:50:33;93711.75;;;14.43;85.46
43553;BME280;29153;42.696;23.218;2023-03-25T15:55:39;93709.41;;;14.24;87.31
43553;BME280;29153;42.696;23.218;2023-03-25T15:58:24;93708.55;;;14.18;87.45
43553;BME280;29153;42.696;23.218;2023-03-25T16:00:51;93706.42;;;14.17;87.41
43553;BME280;29153;42.696;23.218;2023-03-25T16:03:21;93709.25;;;14.12;88.23
43553;BME280;29153;42.696;23.218;2023-03-25T16:05:53;93713.19;;;14.06;88.42
43553;BME280;29153;42.696;23.218;2023-03-25T16:08:35;93713.49;;;13.96;88.97
43553;BME280;29153;42.696;23.218;2023-03-25T16:14:00;93709.25;;;13.86;89.54
43553;BME280;29153;42.696;23.218;2023-03-25T16:16:29;93711.31;;;13.81;89.92
43553;BME280;29153;42.696;23.218;2023-03-25T16:19:00;93705.98;;;13.72;90.20